Time;durP1;ratioP1;P1;durP2;ratioP2;P2;SDS_P1;SDS_P2;PMS_P1;PMS_P2;Temp;Humidity;BMP_temperature;BMP_pressure;BME280_temperature;BME280_humidity;BME280_pressure;Samples;Min_cycle;Max_cycle;Signal;HPM_P1;HPM_P2
2023/01/01 00:01:15;;;;;;;205.05;127.35;;;13.10;99.90;;;;;;4968775;28;20495;-80
2023/01/01 00:03:41;;;;;;;298.38;197.65;;;13.10;99.90;;;;;;4969063;28;20022;-80
2023/01/01 00:06:09;;;;;;;322.23;211.13;;;13.00;99.90;;;;;;4969692;28;20030;-81
2023/01/01 00:08:37;;;;;;;349.20;234.32;;;13.00;99.90;;;;;;4968831;28;20053;-80
2023/01/01 00:11:04;;;;;;;229.95;146.57;;;12.90;99.90;;;;;;4971807;28;20027;-81
2023/01/01 00:13:31;;;;;;;152.77;96.70;;;12.80;99.90;;;;;;4967612;28;20027;-81
2023/01/01 00:16:03;;;;;;;124.57;72.28;;;12.80;99.90;;;;;;4966974;28;20034;-80
2023/01/01 00:18:29;;;;;;;83.53;50.08;;;12.80;99.90;;;;;;4967387;28;20030;-81
2023/01/01 00:21:04;;;;;;;84.05;51.75;;;12.90;99.90;;;;;;4970563;28;20030;-81
2023/01/01 00:23:30;;;;;;;67.63;41.47;;;12.90;99.90;;;;;;4966343;28;20030;-81
2023/01/01 00:25:57;;;;;;;42.63;27.05;;;12.90;99.90;;;;;;4965217;28;20027;-81
2023/01/01 00:28:22;;;;;;;40.50;22.00;;;13.00;99.90;;;;;;4966368;28;20026;-81
2023/01/01 00:30:48;;;;;;;26.50;16.75;;;13.00;99.90;;;;;;4968937;28;20026;-81
2023/01/01 00:33:13;;;;;;;25.38;14.75;;;13.10;99.90;;;;;;4968839;28;20395;-81
2023/01/01 00:35:39;;;;;;;26.08;13.77;;;13.10;99.90;;;;;;4967695;28;20034;-81
2023/01/01 00:38:06;;;;;;;16.92;10.40;;;13.20;99.90;;;;;;4966785;28;20059;-81
2023/01/01 00:40:31;;;;;;;15.63;10.27;;;13.20;99.90;;;;;;4969956;28;20054;-81
2023/01/01 00:42:57;;;;;;;12.27;8.10;;;13.20;99.90;;;;;;4966588;28;20027;-81
2023/01/01 00:45:23;;;;;;;16.35;7.88;;;13.30;99.90;;;;;;4966097;28;20046;-81
2023/01/01 00:47:50;;;;;;;10.75;6.60;;;13.40;99.90;;;;;;4969638;28;20110;-82
2023/01/01 00:50:16;;;;;;;10.63;5.55;;;13.40;99.90;;;;;;4965148;28;20049;-81
2023/01/01 00:52:42;;;;;;;11.75;5.38;;;13.60;99.90;;;;;;4967465;28;20484;-81
2023/01/01 00:55:08;;;;;;;11.70;5.95;;;13.70;99.90;;;;;;4967817;28;20041;-81
2023/01/01 00:57:34;;;;;;;5.10;3.20;;;13.70;99.90;;;;;;4967193;28;20041;-81
2023/01/01 01:00:00;;;;;;;5.68;3.10;;;13.80;99.90;;;;;;4963226;28;20027;-81
2023/01/01 01:02:25;;;;;;;3.05;1.95;;;13.80;99.90;;;;;;4967682;28;20031;-81
2023/01/01 01:04:51;;;;;;;6.57;2.65;;;13.90;99.90;;;;;;4969132;28;20033;-81
2023/01/01 01:07:17;;;;;;;4.68;1.83;;;14.10;99.90;;;;;;4970032;28;20387;-81
2023/01/01 01:09:42;;;;;;;5.72;2.38;;;14.10;99.90;;;;;;4970044;28;20026;-81
2023/01/01 01:12:08;;;;;;;3.28;2.28;;;14.10;99.90;;;;;;5010746;22;20075;-77
2023/01/01 01:14:33;;;;;;;4.97;2.25;;;14.20;99.90;;;;;;5048742;28;20314;-78
2023/01/01 01:16:59;;;;;;;4.32;2.17;;;14.20;99.90;;;;;;5030563;28;20028;-78
2023/01/01 01:19:25;;;;;;;5.95;2.28;;;14.30;99.90;;;;;;5053992;28;20029;-78
2023/01/01 01:21:51;;;;;;;3.63;1.75;;;14.30;99.90;;;;;;5049543;28;20367;-77
2023/01/01 01:24:17;;;;;;;2.55;1.33;;;14.30;99.90;;;;;;5041931;28;20159;-77
2023/01/01 01:26:43;;;;;;;3.85;1.63;;;14.50;99.90;;;;;;5025262;28;20032;-77
2023/01/01 01:29:08;;;;;;;4.10;1.50;;;14.50;99.90;;;;;;5031626;28;20707;-77
2023/01/01 01:31:34;;;;;;;2.78;1.45;;;14.50;99.90;;;;;;5028630;28;20067;-77
2023/01/01 01:34:00;;;;;;;2.92;1.20;;;14.50;99.90;;;;;;5044414;28;20118;-77
2023/01/01 01:36:27;;;;;;;3.58;1.30;;;14.60;99.90;;;;;;5044393;28;20437;-77
2023/01/01 01:38:53;;;;;;;2.90;1.27;;;14.60;99.90;;;;;;5046313;28;20414;-77
2023/01/01 01:41:22;;;;;;;2.78;1.48;;;14.60;99.90;;;;;;5050565;28;20484;-77
2023/01/01 01:43:58;;;;;;;2.50;1.38;;;14.70;99.90;;;;;;5032471;28;20032;-77
2023/01/01 01:46:44;;;;;;;3.88;1.85;;;14.70;99.90;;;;;;5050539;28;20481;-77
2023/01/01 01:49:16;;;;;;;1.95;1.30;;;14.80;99.90;;;;;;5052501;28;20021;-77
2023/01/01 01:51:43;;;;;;;3.60;1.33;;;14.80;99.90;;;;;;5049219;28;20025;-77
2023/01/01 01:54:12;;;;;;;4.93;1.33;;;14.80;99.90;;;;;;5030861;28;20025;-77
2023/01/01 01:57:01;;;;;;;3.42;1.40;;;14.90;99.90;;;;;;5048117;28;20040;-77
2023/01/01 01:59:30;;;;;;;2.72;1.40;;;14.90;99.90;;;;;;5046776;28;20024;-78
2023/01/01 02:01:56;;;;;;;3.00;1.00;;;14.90;99.90;;;;;;5051621;28;20029;-77
2023/01/01 02:04:22;;;;;;;2.30;1.00;;;14.90;99.90;;;;;;5048257;28;20025;-77
2023/01/01 02:06:49;;;;;;;1.52;1.15;;;14.90;99.90;;;;;;5032324;28;20031;-77
2023/01/01 02:09:15;;;;;;;2.30;1.08;;;14.80;99.90;;;;;;5029334;28;20032;-76
2023/01/01 02:11:41;;;;;;;2.42;1.25;;;14.90;99.90;;;;;;5047465;28;20033;-77
2023/01/01 02:14:07;;;;;;;2.20;0.98;;;14.90;99.90;;;;;;5030392;28;20029;-77
2023/01/01 02:16:36;;;;;;;1.85;1.10;;;14.80;99.90;;;;;;5053895;28;20465;-78
2023/01/01 02:19:14;;;;;;;6.30;3.75;;;14.80;99.90;;;;;;5053018;28;20057;-78
2023/01/01 02:22:10;;;;;;;8.85;4.13;;;14.70;99.90;;;;;;5033034;28;20033;-78
2023/01/01 02:25:14;;;;;;;10.38;6.20;;;14.60;99.90;;;;;;5032746;28;20031;-77
2023/01/01 02:28:04;;;;;;;8.93;5.32;;;14.40;99.90;;;;;;5045074;28;20037;-77
2023/01/01 02:30:31;;;;;;;11.65;6.15;;;14.30;99.90;;;;;;5056370;28;20022;-78
2023/01/01 02:33:03;;;;;;;14.73;7.05;;;14.20;99.90;;;;;;5035767;28;20048;-78
2023/01/01 02:35:33;;;;;;;13.27;6.47;;;14.10;99.90;;;;;;5051847;28;20021;-78
2023/01/01 02:38:10;;;;;;;10.80;5.72;;;14.00;99.90;;;;;;5054667;28;20058;-76
2023/01/01 02:40:40;;;;;;;12.18;6.97;;;13.80;99.90;;;;;;5047831;28;20685;-78
2023/01/01 02:43:06;;;;;;;11.30;6.78;;;13.80;99.90;;;;;;5047637;28;20028;-76
2023/01/01 02:45:32;;;;;;;9.88;6.22;;;13.70;99.90;;;;;;5048186;28;20033;-77
2023/01/01 02:48:04;;;;;;;10.13;5.65;;;13.60;99.90;;;;;;5048641;28;20021;-77
2023/01/01 02:50:29;;;;;;;9.35;6.25;;;13.50;99.90;;;;;;5045929;28;20031;-77
2023/01/01 02:52:58;;;;;;;10.20;5.00;;;13.50;99.90;;;;;;5032772;28;20029;-77
2023/01/01 02:55:32;;;;;;;10.25;5.55;;;13.40;99.90;;;;;;5045323;28;20032;-77
2023/01/01 03:01:28;;;;;;;11.77;5.80;;;13.30;99.90;;;;;;5043801;28;20721;-76
2023/01/01 03:04:13;;;;;;;8.02;4.90;;;13.20;99.90;;;;;;5046111;28;20021;-77
2023/01/01 03:06:49;;;;;;;9.07;5.50;;;13.20;99.90;;;;;;5040748;28;20049;-77
2023/01/01 03:09:26;;;;;;;9.45;5.13;;;13.10;99.90;;;;;;5045005;28;20493;-76
2023/01/01 03:12:04;;;;;;;8.07;4.47;;;13.10;99.90;;;;;;5044514;28;20037;-77
2023/01/01 03:14:48;;;;;;;8.63;4.97;;;13.10;99.90;;;;;;5048603;28;20029;-77
2023/01/01 03:17:21;;;;;;;8.32;4.97;;;13.00;99.90;;;;;;5040575;28;20065;-77
2023/01/01 03:19:50;;;;;;;8.15;3.88;;;13.00;99.90;;;;;;5035079;28;20025;-77
2023/01/01 03:22:18;;;;;;;7.22;3.85;;;12.90;99.90;;;;;;5049748;28;20037;-77
2023/01/01 03:24:51;;;;;;;7.55;3.72;;;12.90;99.90;;;;;;5050813;28;20017;-77
2023/01/01 03:27:25;;;;;;;6.55;4.05;;;12.90;99.90;;;;;;5047336;28;20108;-78
2023/01/01 03:29:55;;;;;;;7.97;4.22;;;12.80;99.90;;;;;;5049144;28;20032;-77
2023/01/01 03:32:59;;;;;;;8.40;4.20;;;12.80;99.90;;;;;;5035141;28;20025;-78
2023/01/01 03:35:14;;;;;;;6.75;4.20;;;12.80;99.90;;;;;;5050493;28;20089;-78
2023/01/01 03:37:43;;;;;;;7.55;4.40;;;12.70;99.90;;;;;;5031041;28;20044;-78
2023/01/01 03:40:10;;;;;;;6.93;4.13;;;12.70;99.90;;;;;;5051291;28;20021;-78
2023/01/01 03:42:40;;;;;;;7.93;4.38;;;12.70;99.90;;;;;;5030249;28;20031;-77
2023/01/01 03:45:25;;;;;;;7.25;3.63;;;12.60;99.90;;;;;;5048309;28;20504;-77
2023/01/01 03:47:51;;;;;;;7.93;3.70;;;12.60;99.90;;;;;;5034112;28;20032;-77
2023/01/01 03:50:20;;;;;;;7.63;3.70;;;12.60;99.90;;;;;;5053441;28;20017;-77
2023/01/01 03:53:17;;;;;;;5.55;3.47;;;12.60;99.90;;;;;;5053716;28;20371;-78
2023/01/01 03:55:49;;;;;;;6.25;3.95;;;12.50;99.90;;;;;;5031104;28;20060;-78
2023/01/01 03:58:49;;;;;;;8.20;3.65;;;12.50;99.90;;;;;;5050035;28;20070;-77
2023/01/01 04:01:29;;;;;;;6.97;3.53;;;12.50;99.90;;;;;;5018551;28;20040;-77
2023/01/01 04:03:56;;;;;;;10.75;4.50;;;12.40;99.90;;;;;;5044591;28;20066;-77
2023/01/01 04:06:22;;;;;;;5.78;3.65;;;12.40;99.90;;;;;;5036420;28;20493;-77
2023/01/01 04:08:49;;;;;;;6.45;3.33;;;12.40;99.90;;;;;;5030972;28;20025;-77
2023/01/01 04:14:04;;;;;;;6.70;3.25;;;12.40;99.90;;;;;;5052839;28;20032;-78
2023/01/01 04:16:30;;;;;;;7.78;3.45;;;12.30;99.90;;;;;;5053272;28;20033;-78
2023/01/01 04:18:55;;;;;;;7.53;3.40;;;12.30;99.90;;;;;;5032529;28;20394;-78
2023/01/01 04:21:21;;;;;;;6.38;3.58;;;12.20;99.90;;;;;;5052657;28;20032;-77
2023/01/01 04:23:47;;;;;;;6.68;3.15;;;12.30;99.90;;;;;;5049124;28;20033;-77
2023/01/01 04:26:15;;;;;;;5.28;3.30;;;12.20;99.90;;;;;;5048828;28;20027;-77
2023/01/01 04:28:42;;;;;;;8.13;4.00;;;12.20;99.90;;;;;;5043139;28;20035;-77
2023/01/01 04:31:08;;;;;;;6.53;3.53;;;12.10;99.90;;;;;;5049529;28;20025;-78
2023/01/01 04:33:34;;;;;;;6.93;3.72;;;12.20;99.90;;;;;;5052148;28;20082;-78
2023/01/01 04:36:05;;;;;;;6.45;3.92;;;12.10;99.90;;;;;;5031635;28;20060;-77
2023/01/01 04:38:33;;;;;;;6.75;3.78;;;12.10;99.90;;;;;;5034117;28;20079;-77
2023/01/01 04:41:00;;;;;;;7.18;4.00;;;12.10;99.90;;;;;;5028799;28;20025;-77
2023/01/01 04:43:26;;;;;;;5.55;3.55;;;12.00;99.90;;;;;;5030118;28;20373;-77
2023/01/01 04:45:59;;;;;;;6.80;3.75;;;12.00;99.90;;;;;;5048416;28;20036;-77
2023/01/01 04:48:26;;;;;;;5.90;3.45;;;12.00;99.90;;;;;;5041459;28;20042;-77
2023/01/01 04:51:05;;;;;;;13.82;4.53;;;11.90;99.90;;;;;;5029565;28;20433;-77
2023/01/01 04:53:33;;;;;;;5.50;3.50;;;11.90;99.90;;;;;;5030825;28;20032;-78
2023/01/01 04:56:07;;;;;;;6.63;3.42;;;11.90;99.90;;;;;;5047692;28;20032;-77
2023/01/01 04:58:34;;;;;;;6.40;3.95;;;11.90;99.90;;;;;;5026055;28;20100;-78
2023/01/01 05:01:00;;;;;;;6.82;3.47;;;11.80;99.90;;;;;;5029627;28;20043;-77
2023/01/01 05:03:26;;;;;;;8.02;4.07;;;11.80;99.90;;;;;;5049287;28;20033;-78
2023/01/01 05:06:02;;;;;;;6.70;3.47;;;11.70;99.90;;;;;;5036441;28;20021;-76
2023/01/01 05:08:36;;;;;;;7.13;3.83;;;11.70;99.90;;;;;;5034173;28;20017;-76
2023/01/01 05:11:02;;;;;;;;;;;11.60;99.90;;;;;;5054129;28;20276;-77
2023/01/01 05:13:28;;;;;;;17.77;4.18;;;11.60;99.90;;;;;;5037811;28;19920;-78
2023/01/01 05:15:54;;;;;;;11.73;5.00;;;11.60;99.90;;;;;;5034255;28;20024;-77
2023/01/01 05:18:20;;;;;;;17.05;4.57;;;11.60;99.90;;;;;;5048568;28;20036;-77
2023/01/01 05:20:45;;;;;;;15.07;4.00;;;11.50;99.90;;;;;;5050644;28;20032;-77
2023/01/01 05:23:11;;;;;;;8.80;4.13;;;11.50;99.90;;;;;;5029966;28;20032;-76
2023/01/01 05:25:37;;;;;;;7.00;3.35;;;11.50;99.90;;;;;;5050139;28;20025;-76
2023/01/01 05:28:02;;;;;;;7.32;3.88;;;11.50;99.90;;;;;;5050639;28;20220;-78
2023/01/01 05:30:28;;;;;;;7.18;3.25;;;11.50;99.90;;;;;;5052844;28;20033;-77
2023/01/01 05:32:53;;;;;;;5.60;3.40;;;11.50;99.90;;;;;;5049093;28;20574;-76
2023/01/01 05:35:19;;;;;;;6.05;3.80;;;11.60;99.90;;;;;;5051043;28;20159;-76
2023/01/01 05:37:45;;;;;;;6.28;3.80;;;11.60;99.90;;;;;;5048682;28;20036;-77
2023/01/01 05:40:11;;;;;;;6.57;3.67;;;11.60;99.90;;;;;;5048608;28;20497;-77
2023/01/01 05:42:36;;;;;;;7.15;3.90;;;11.60;99.90;;;;;;5053208;28;20036;-77
2023/01/01 05:45:03;;;;;;;6.70;3.70;;;11.70;99.90;;;;;;5035555;28;20026;-77
2023/01/01 05:47:28;;;;;;;7.45;4.05;;;11.70;99.90;;;;;;5048622;28;20068;-76
2023/01/01 05:49:54;;;;;;;7.80;4.03;;;11.70;99.90;;;;;;5050089;28;20045;-77
2023/01/01 05:52:20;;;;;;;7.40;4.18;;;11.80;99.90;;;;;;5051477;28;20561;-77
2023/01/01 05:54:45;;;;;;;6.40;3.60;;;11.70;99.90;;;;;;5048511;28;20036;-76
2023/01/01 05:57:11;;;;;;;7.18;4.43;;;11.80;99.90;;;;;;5049830;28;20116;-77
2023/01/01 05:59:36;;;;;;;9.23;4.05;;;11.80;99.90;;;;;;5035496;28;20036;-77
2023/01/01 06:02:02;;;;;;;6.22;3.70;;;11.80;99.90;;;;;;5055595;28;20033;-77
2023/01/01 06:04:28;;;;;;;11.05;5.20;;;11.80;99.90;;;;;;5052235;28;20040;-76
2023/01/01 06:06:53;;;;;;;7.07;3.50;;;11.80;99.90;;;;;;5053796;28;20025;-77
2023/01/01 06:09:19;;;;;;;6.60;3.90;;;11.80;99.90;;;;;;5035982;28;20629;-77
2023/01/01 06:11:45;;;;;;;5.65;3.35;;;11.80;99.90;;;;;;5047338;28;20032;-77
2023/01/01 06:14:10;;;;;;;7.10;4.10;;;11.80;99.90;;;;;;5051517;28;20390;-77
2023/01/01 06:16:36;;;;;;;7.60;3.55;;;11.80;99.90;;;;;;5032433;28;20029;-77
2023/01/01 06:19:02;;;;;;;7.78;3.88;;;11.80;99.90;;;;;;5046038;28;20037;-77
2023/01/01 06:21:28;;;;;;;7.75;3.80;;;11.80;99.90;;;;;;5051624;28;20599;-77
2023/01/01 06:23:56;;;;;;;5.07;3.10;;;11.80;99.90;;;;;;5032990;28;20059;-77
2023/01/01 06:26:24;;;;;;;7.03;3.55;;;11.80;99.90;;;;;;5036935;28;20414;-77
2023/01/01 06:28:50;;;;;;;7.40;3.65;;;11.80;99.90;;;;;;5053850;28;20025;-77
2023/01/01 06:31:18;;;;;;;7.75;3.90;;;11.70;99.90;;;;;;5037012;28;20378;-77
2023/01/01 06:33:44;;;;;;;8.98;4.15;;;11.70;99.90;;;;;;5051701;28;20051;-77
2023/01/01 06:36:12;;;;;;;9.27;4.07;;;11.70;99.90;;;;;;5050836;28;20354;-77
2023/01/01 06:38:41;;;;;;;8.75;3.85;;;11.70;99.90;;;;;;5048753;28;20110;-76
2023/01/01 06:41:10;;;;;;;7.63;4.22;;;11.70;99.90;;;;;;5043752;28;20496;-77
2023/01/01 06:43:36;;;;;;;7.22;4.10;;;11.70;99.90;;;;;;5045862;28;20025;-77
2023/01/01 06:46:08;;;;;;;5.72;3.83;;;11.70;99.90;;;;;;5048432;28;20017;-75
2023/01/01 06:48:35;;;;;;;8.60;3.55;;;11.70;99.90;;;;;;5038245;28;20471;-75
2023/01/01 06:51:11;;;;;;;6.05;3.72;;;11.70;99.90;;;;;;5048990;28;20021;-76
2023/01/01 06:53:37;;;;;;;6.38;4.22;;;11.70;99.90;;;;;;5046676;28;20512;-77
2023/01/01 06:56:04;;;;;;;7.20;4.57;;;11.70;99.90;;;;;;5038296;28;20017;-77
2023/01/01 06:58:30;;;;;;;9.93;4.65;;;11.70;99.90;;;;;;5038401;28;20044;-77
2023/01/01 07:01:13;;;;;;;7.30;3.92;;;11.70;99.90;;;;;;5032139;28;20021;-77
2023/01/01 07:03:40;;;;;;;6.93;3.78;;;11.70;99.90;;;;;;5051342;28;20045;-77
2023/01/01 07:06:07;;;;;;;8.38;3.67;;;11.70;99.90;;;;;;5050985;28;20067;-77
2023/01/01 07:08:33;;;;;;;7.65;4.07;;;11.60;99.90;;;;;;5051191;28;20035;-77
2023/01/01 07:10:59;;;;;;;7.28;3.88;;;11.70;99.90;;;;;;5054532;28;20032;-77
2023/01/01 07:13:25;;;;;;;8.73;3.95;;;11.70;99.90;;;;;;5047284;28;20033;-77
2023/01/01 07:15:51;;;;;;;6.85;3.67;;;11.70;99.90;;;;;;5034622;28;20021;-77
2023/01/01 07:18:21;;;;;;;6.63;3.42;;;11.70;99.90;;;;;;5048038;28;20056;-78
2023/01/01 07:20:58;;;;;;;7.72;3.75;;;11.70;99.90;;;;;;5046959;28;20172;-78
2023/01/01 07:23:26;;;;;;;7.25;4.15;;;11.60;99.90;;;;;;5050608;28;20033;-78
2023/01/01 07:25:53;;;;;;;6.03;3.20;;;11.60;99.90;;;;;;5051855;28;20043;-77
2023/01/01 07:28:20;;;;;;;7.70;4.03;;;11.60;99.90;;;;;;5029132;28;20021;-76
2023/01/01 07:30:46;;;;;;;10.30;3.90;;;11.70;99.90;;;;;;5026917;28;20474;-77
2023/01/01 07:33:17;;;;;;;9.07;4.55;;;11.70;99.90;;;;;;5051012;28;20071;-77
2023/01/01 07:35:46;;;;;;;8.77;4.47;;;11.70;99.90;;;;;;5048500;28;20516;-77
2023/01/01 07:38:13;;;;;;;9.63;4.25;;;11.70;99.90;;;;;;5030265;28;20033;-79
2023/01/01 07:40:40;;;;;;;5.70;3.75;;;11.70;99.90;;;;;;5033508;28;20510;-78
2023/01/01 07:43:06;;;;;;;7.10;3.40;;;11.70;99.90;;;;;;5035121;28;20025;-78
2023/01/01 07:45:32;;;;;;;10.80;3.97;;;11.70;99.90;;;;;;5033726;28;20036;-77
2023/01/01 07:47:59;;;;;;;5.47;3.22;;;11.70;99.90;;;;;;5043354;28;20021;-75
2023/01/01 07:50:27;;;;;;;8.70;3.30;;;11.70;99.90;;;;;;5048043;28;20111;-77
2023/01/01 07:52:53;;;;;;;7.90;2.80;;;11.80;99.90;;;;;;5030002;28;20108;-77
2023/01/01 07:55:19;;;;;;;6.90;3.30;;;11.80;99.90;;;;;;5045406;28;20455;-77
2023/01/01 07:57:45;;;;;;;7.55;3.53;;;11.80;99.90;;;;;;5032386;28;20040;-76
2023/01/01 08:00:14;;;;;;;5.03;2.95;;;11.90;99.90;;;;;;5045107;28;20406;-78
2023/01/01 08:02:40;;;;;;;5.00;3.10;;;11.90;99.90;;;;;;5047341;28;20032;-78
2023/01/01 08:05:06;;;;;;;6.60;3.35;;;11.90;99.90;;;;;;5051152;28;20692;-76
2023/01/01 08:07:32;;;;;;;4.60;2.83;;;12.00;99.90;;;;;;5028245;28;20061;-76
2023/01/01 08:09:58;;;;;;;9.20;3.67;;;12.00;99.90;;;;;;5028849;28;20056;-76
2023/01/01 08:12:24;;;;;;;6.43;2.85;;;12.00;99.90;;;;;;5031784;28;20112;-77
2023/01/01 08:14:50;;;;;;;4.68;2.90;;;12.10;99.90;;;;;;5046888;28;20025;-77
2023/01/01 08:17:16;;;;;;;5.60;3.15;;;12.10;99.90;;;;;;5048424;28;20090;-77
2023/01/01 08:19:43;;;;;;;6.55;2.90;;;12.10;99.90;;;;;;5032215;28;21239;-77
2023/01/01 08:22:09;;;;;;;7.38;3.20;;;12.10;99.90;;;;;;5047346;28;20024;-77
2023/01/01 08:24:35;;;;;;;6.32;3.00;;;12.10;99.90;;;;;;5031323;28;20025;-77
2023/01/01 08:27:01;;;;;;;7.00;2.92;;;12.20;99.90;;;;;;5047642;28;20032;-77
2023/01/01 08:29:26;;;;;;;9.18;3.20;;;12.20;99.90;;;;;;5043117;28;20075;-76
2023/01/01 08:31:52;;;;;;;8.27;3.13;;;12.20;99.90;;;;;;5040356;28;20381;-75
2023/01/01 08:34:17;;;;;;;7.07;2.85;;;12.30;99.90;;;;;;5044797;28;20060;-76
2023/01/01 08:36:43;;;;;;;5.55;3.00;;;12.30;99.90;;;;;;5028148;28;20025;-76
2023/01/01 08:39:09;;;;;;;5.78;3.45;;;12.30;99.90;;;;;;5040138;28;20025;-76
2023/01/01 08:41:34;;;;;;;6.10;2.78;;;12.30;99.90;;;;;;5043100;28;20393;-76
2023/01/01 08:44:00;;;;;;;5.53;3.28;;;12.40;99.90;;;;;;5049417;28;20389;-76
2023/01/01 08:46:26;;;;;;;4.80;2.92;;;12.40;99.90;;;;;;5043854;28;20028;-76
2023/01/01 08:48:51;;;;;;;9.20;3.75;;;12.40;99.90;;;;;;5031274;28;20036;-76
2023/01/01 08:51:17;;;;;;;5.38;3.10;;;12.40;99.90;;;;;;5032460;28;20033;-76
2023/01/01 08:53:43;;;;;;;6.10;3.40;;;12.40;99.90;;;;;;5030917;28;20032;-76
2023/01/01 08:56:11;;;;;;;5.25;2.90;;;12.40;99.90;;;;;;5047571;28;20025;-76
2023/01/01 08:58:39;;;;;;;8.70;3.15;;;12.40;99.90;;;;;;5031252;28;20023;-77
2023/01/01 09:01:06;;;;;;;5.22;3.00;;;12.40;99.90;;;;;;5027555;28;20017;-77
2023/01/01 09:03:32;;;;;;;4.70;2.60;;;12.50;99.90;;;;;;5032365;28;20441;-76
2023/01/01 09:05:58;;;;;;;5.78;3.08;;;12.50;99.90;;;;;;5052972;28;20036;-78
2023/01/01 09:08:24;;;;;;;5.32;2.85;;;12.50;99.90;;;;;;5030722;28;20021;-74
2023/01/01 09:10:50;;;;;;;8.23;2.88;;;12.60;99.90;;;;;;5044230;28;20022;-76
2023/01/01 09:13:18;;;;;;;7.80;2.90;;;12.60;99.90;;;;;;5050705;28;20032;-76
2023/01/01 09:15:44;;;;;;;6.28;3.15;;;12.70;99.90;;;;;;5031367;28;20040;-77
2023/01/01 09:18:11;;;;;;;5.93;2.90;;;12.70;99.90;;;;;;5028675;28;20029;-77
2023/01/01 09:20:37;;;;;;;5.47;3.03;;;12.80;99.90;;;;;;5030342;28;20036;-76
2023/01/01 09:23:03;;;;;;;8.75;4.05;;;12.80;99.90;;;;;;5039179;28;20041;-78
2023/01/01 09:25:30;;;;;;;7.07;3.95;;;12.80;99.90;;;;;;5044376;28;20056;-77
2023/01/01 09:28:02;;;;;;;12.10;5.80;;;12.80;99.90;;;;;;5043521;28;20067;-77
2023/01/01 09:30:29;;;;;;;9.80;4.78;;;12.80;99.90;;;;;;5046198;28;20104;-77
2023/01/01 09:32:54;;;;;;;10.00;5.85;;;12.70;99.90;;;;;;5024144;28;20029;-77
2023/01/01 09:35:20;;;;;;;7.35;4.22;;;12.60;99.90;;;;;;5045840;28;20025;-77
2023/01/01 09:37:46;;;;;;;13.68;6.20;;;12.60;99.90;;;;;;5030148;28;20021;-78
2023/01/01 09:40:27;;;;;;;8.80;5.00;;;12.60;99.90;;;;;;5046331;28;20033;-77
2023/01/01 09:43:24;;;;;;;8.18;5.07;;;12.50;99.90;;;;;;5048530;28;20474;-78
2023/01/01 09:46:01;;;;;;;9.90;4.75;;;12.50;99.90;;;;;;5030528;28;20026;-77
2023/01/01 09:48:29;;;;;;;8.27;3.63;;;12.50;99.90;;;;;;5049451;28;20033;-78
2023/01/01 09:50:56;;;;;;;9.45;4.30;;;12.60;99.90;;;;;;5041554;28;20022;-76
2023/01/01 09:53:36;;;;;;;6.40;3.13;;;12.60;99.90;;;;;;5049929;28;20029;-78
2023/01/01 09:56:04;;;;;;;7.28;2.92;;;12.70;99.90;;;;;;5047984;28;20029;-77
2023/01/01 09:58:37;;;;;;;6.80;3.10;;;12.80;99.90;;;;;;5031971;28;20496;-77
2023/01/01 10:01:18;;;;;;;6.90;3.70;;;12.90;99.90;;;;;;5054758;28;20044;-78
2023/01/01 10:04:03;;;;;;;7.70;3.00;;;12.90;99.90;;;;;;5050319;28;20025;-77
2023/01/01 10:06:33;;;;;;;7.65;3.08;;;13.00;99.90;;;;;;5029213;28;21172;-71
2023/01/01 10:09:23;;;;;;;7.07;2.72;;;13.10;99.90;;;;;;5025374;28;20025;-69
2023/01/01 10:12:00;;;;;;;10.00;3.40;;;13.30;99.90;;;;;;5047137;28;20024;-70
2023/01/01 10:14:31;;;;;;;7.47;2.85;;;13.50;99.90;;;;;;5047645;28;20028;-71
2023/01/01 10:17:01;;;;;;;7.22;2.92;;;13.70;99.90;;;;;;5030602;28;20078;-78
2023/01/01 10:19:58;;;;;;;6.22;2.67;;;13.90;99.90;;;;;;5032530;28;20025;-77
2023/01/01 10:22:42;;;;;;;6.32;2.42;;;14.00;99.90;;;;;;4999237;28;20075;-77
2023/01/01 10:25:31;;;;;;;5.60;2.78;;;14.00;99.90;;;;;;5026222;28;20509;-76
2023/01/01 10:28:12;;;;;;;5.60;2.75;;;14.00;99.90;;;;;;5035763;28;20029;-76
2023/01/01 10:30:40;;;;;;;5.82;2.53;;;14.10;99.90;;;;;;5030250;28;20099;-77
2023/01/01 10:33:13;;;;;;;10.27;4.00;;;14.10;99.90;;;;;;5027882;28;20404;-76
2023/01/01 10:35:48;;;;;;;10.75;6.72;;;14.20;99.90;;;;;;5045461;28;20108;-76
2023/01/01 10:38:23;;;;;;;10.85;5.95;;;14.20;99.90;;;;;;5027599;28;20037;-76
2023/01/01 10:40:50;;;;;;;11.02;6.05;;;14.20;99.90;;;;;;5040927;28;20041;-75
2023/01/01 10:43:16;;;;;;;12.90;6.25;;;14.10;99.90;;;;;;5023356;28;20033;-76
2023/01/01 10:45:50;;;;;;;13.55;6.70;;;14.00;99.90;;;;;;5048255;28;20035;-77
2023/01/01 10:48:23;;;;;;;9.65;6.20;;;14.00;99.90;;;;;;5046512;28;20057;-76
2023/01/01 10:50:53;;;;;;;10.90;5.05;;;14.00;99.90;;;;;;5032521;28;20044;-76
2023/01/01 10:53:49;;;;;;;7.93;4.97;;;13.90;99.90;;;;;;5028686;28;20105;-76
2023/01/01 10:56:21;;;;;;;11.10;5.30;;;13.90;99.90;;;;;;5042006;28;20029;-76
2023/01/01 10:58:53;;;;;;;10.07;5.38;;;14.00;99.90;;;;;;5026866;28;20342;-76
2023/01/01 11:01:25;;;;;;;12.20;4.97;;;14.00;99.90;;;;;;5026395;28;20033;-76
2023/01/01 11:04:19;;;;;;;10.60;6.05;;;14.00;99.90;;;;;;5023587;28;20037;-77
2023/01/01 11:06:46;;;;;;;8.95;6.03;;;14.10;99.90;;;;;;5046541;28;20047;-77
2023/01/01 11:09:27;;;;;;;10.90;5.55;;;14.10;99.90;;;;;;5030579;28;20029;-76
2023/01/01 11:11:58;;;;;;;10.73;5.70;;;14.10;99.90;;;;;;5044993;28;20144;-75
2023/01/01 11:14:47;;;;;;;12.23;5.97;;;14.10;99.90;;;;;;5049626;28;20044;-75
2023/01/01 11:17:20;;;;;;;9.35;5.30;;;14.10;99.90;;;;;;5032527;28;20032;-77
2023/01/01 11:19:49;;;;;;;11.70;6.78;;;14.10;99.90;;;;;;5043255;28;20084;-77
2023/01/01 11:22:36;;;;;;;10.50;5.90;;;14.10;99.90;;;;;;5046664;28;20086;-77
2023/01/01 11:25:03;;;;;;;10.68;5.63;;;14.20;99.90;;;;;;5044672;28;20021;-77
2023/01/01 11:27:30;;;;;;;8.65;5.45;;;14.20;99.90;;;;;;5045345;28;20103;-78
2023/01/01 11:30:21;;;;;;;9.95;5.22;;;14.20;99.90;;;;;;5047139;28;20037;-77
2023/01/01 11:32:48;;;;;;;11.10;5.07;;;14.20;99.90;;;;;;5035684;28;20045;-76
2023/01/01 11:35:22;;;;;;;7.10;4.30;;;14.30;99.90;;;;;;5049888;28;20036;-77
2023/01/01 11:37:50;;;;;;;7.68;4.55;;;14.30;99.90;;;;;;5049104;28;20028;-77
2023/01/01 11:40:32;;;;;;;8.68;4.85;;;14.30;99.90;;;;;;5031984;28;20045;-77
2023/01/01 11:43:00;;;;;;;8.43;4.57;;;14.30;99.90;;;;;;5029294;28;20021;-77
2023/01/01 11:45:37;;;;;;;7.00;3.78;;;14.30;99.90;;;;;;5036190;28;20032;-77
2023/01/01 11:48:10;;;;;;;7.88;3.70;;;14.40;99.90;;;;;;5035003;28;20021;-76
2023/01/01 11:50:38;;;;;;;5.85;3.47;;;14.40;99.90;;;;;;5048358;28;20524;-77
2023/01/01 11:53:22;;;;;;;5.60;3.10;;;14.50;99.90;;;;;;5052334;28;20028;-77
2023/01/01 11:56:14;;;;;;;5.25;2.90;;;14.50;99.90;;;;;;5036153;28;20021;-78
2023/01/01 11:59:01;;;;;;;4.53;2.85;;;14.60;99.90;;;;;;5035559;28;20037;-77
2023/01/01 12:01:35;;;;;;;9.35;3.13;;;14.70;99.90;;;;;;5046048;28;20033;-77
2023/01/01 12:04:05;;;;;;;8.15;2.67;;;14.70;99.90;;;;;;5047510;28;20147;-77
2023/01/01 12:06:50;;;;;;;6.75;2.95;;;14.70;99.90;;;;;;5053260;28;20107;-77
2023/01/01 12:09:23;;;;;;;7.38;2.70;;;14.80;99.90;;;;;;5051873;28;20033;-78
2023/01/01 12:12:22;;;;;;;7.57;2.92;;;14.90;99.90;;;;;;5050571;28;20033;-77
2023/01/01 12:15:22;;;;;;;6.15;2.50;;;14.90;99.90;;;;;;5030948;28;20121;-76
2023/01/01 12:18:05;;;;;;;4.55;2.25;;;15.00;99.90;;;;;;5025073;28;20164;-75
2023/01/01 12:20:39;;;;;;;6.22;2.22;;;15.10;99.90;;;;;;5047207;28;20375;-75
2023/01/01 12:23:07;;;;;;;5.53;2.45;;;15.30;99.90;;;;;;5043900;28;20390;-75
2023/01/01 12:25:39;;;;;;;6.18;2.05;;;15.30;99.90;;;;;;5022645;28;20029;-75
2023/01/01 12:28:10;;;;;;;8.65;2.45;;;15.40;99.90;;;;;;5050423;28;20435;-74
2023/01/01 12:30:48;;;;;;;8.07;2.67;;;15.40;99.90;;;;;;5049935;28;20043;-75
2023/01/01 12:33:44;;;;;;;7.75;2.67;;;15.40;99.90;;;;;;5046503;28;20052;-76
2023/01/01 12:36:33;;;;;;;6.78;2.60;;;15.50;99.90;;;;;;5044948;28;20041;-76
2023/01/01 12:39:23;;;;;;;3.53;1.83;;;15.50;99.90;;;;;;5051032;28;20064;-75
2023/01/01 12:41:58;;;;;;;4.93;2.33;;;15.60;99.90;;;;;;5044071;28;20030;-76
2023/01/01 12:44:47;;;;;;;5.15;2.08;;;15.60;99.90;;;;;;5044771;28;20059;-77
2023/01/01 12:47:42;;;;;;;5.10;1.98;;;15.70;99.90;;;;;;5051453;28;20035;-78
2023/01/01 12:50:38;;;;;;;4.97;2.47;;;15.70;99.90;;;;;;5030428;28;20068;-76
2023/01/01 12:53:21;;;;;;;7.00;2.30;;;15.70;99.90;;;;;;5044957;28;20037;-76
2023/01/01 12:56:08;;;;;;;4.75;2.45;;;15.70;99.90;;;;;;5026464;28;20029;-76
2023/01/01 12:58:54;;;;;;;5.68;2.40;;;15.70;99.90;;;;;;5045062;28;20398;-76
2023/01/01 13:01:25;;;;;;;6.63;2.10;;;15.70;99.90;;;;;;5032380;28;20505;-77
2023/01/01 13:03:54;;;;;;;3.85;1.90;;;15.80;99.90;;;;;;5043766;28;20029;-77
2023/01/01 13:06:35;;;;;;;6.05;2.17;;;15.70;99.90;;;;;;5016868;28;20026;-77
2023/01/01 13:09:11;;;;;;;3.50;2.05;;;15.70;99.90;;;;;;5024376;28;20025;-77